الصفحة الرئيسية
METAR-TAF:

METAR-TAF

مطار :

ستانلي, جزر فوكلاند

قاعدة جبل بليزنت الجوية

دائرة عرض: 51-49S, خط طول: 058-27W, ارتفاع: 74 متر

مراقبة الطقس الحالي

تاريخ ووقت الإصدار 43 دقيقة قبل الساعة 12:50UTC
ريح 17 عقدة من الغرب/الشمال الغربي
درجة الحرارة 9°درجة مئوية
الرطوبة 61%
ضغط 1008 hPa
الرؤية 10 كم أو أكثر
غيوم قليلة على ارتفاع 2800 قدم
غيوم متفرقة على ارتفاع 25000 قدم

METAR: EGYP 231250Z 29017KT 9999 FEW028 SCT250 09/02 Q1008 BLU NOSIG

زمن: 10:33 (13:33 UTC)

توقعات

تاريخ ووقت الإصدار 3ساعات و 30 دقيقة قبل الساعة 10:03UTC
التوقعات صالحة من23 الساعة 12 UTC إلى 24 الساعة 06 UTC
ريح 15 عقدة من الغرب/الشمال الغربي تتزايد حتى 25 عقدة
الرؤية 10 كم أو أكثر
غيوم قليلة على ارتفاع 3000 قدم
نظرية الاحتمالات 30% :
مؤقت
من 23 الساعة 12 UTC إلى 23 الساعة 18 UTC
الرؤية: 7000 متر
زخات من الأمطار الخفيفة

TAF: EGYP 231003Z 2312/2406 29015G25KT 9999 FEW030 PROB30 TEMPO 2312/2318 7000 -SHRA

أرصاد الطقس والتوقعات من أكثر من 4000 مطار (تقارير الطقس للمطار METAR والتنبؤ بالطقس بالمطارTAF).

المحطات المتاحة هي النقط الصفراء والحمراء على الخريطة.

حرك المؤشر فوق النقطة لمعرفة اسم المحطة.

ثم انقر لمعرفة أرصاد وتوقعات الطقس.

لتغيير الخارطة: اضغط على الأزرار الخضراء مع رمز الصليب الأسود للتكبير. على الزر الأخضر مع شرطة للتصغير، أو على الأسهم الخضراء للخرائط المجاورة.


METAR-TAF: